Meteorología y climatología de Navarra
Datos de la estación - Meteo Navarra

Estación de Eltzaburu GN

Altitud 588 m.


Datos desde el 16/09/2020 hasta el 17/09/2020 en horario solar
Los datos son PROVISIONALES

Anterior Página 1 de 1 Siguiente Descargar: Formato para Excel 2000 o superior   Formato csv   Formato para OpenOffice Calc
Fecha Temperatura Humedad relativa Radiación global Insolación Precipitación Vel. viento 10 m Vel. viento 10 m Dir. viento 10 m
ºC % W/m² s l/m² m/s km/h º
16/09/2020 0:00 15.1 89 0.0 0 0.0 0.4 1.4 286
16/09/2020 0:10 14.6 93 0.0 0 0.0 0.5 1.8 349
16/09/2020 0:20 14.4 94 0.0 0 0.0 0.3 1.0 303
16/09/2020 0:30 14.6 95 0.0 0 0.0 0.6 2.2 313
16/09/2020 0:40 15.0 94 0.0 0 0.0 0.4 1.4 345
16/09/2020 0:50 14.8 92 0.0 0 0.0 0.2 0.8 192
16/09/2020 1:00 14.3 93 0.0 0 0.0 0.1 0.3 59
16/09/2020 1:10 14.3 95 0.0 0 0.0 0.0 0.0 0
16/09/2020 1:20 14.1 95 0.0 0 0.0 0.0 0.1 307
16/09/2020 1:30 13.9 95 0.0 0 0.0 0.2 0.6 98
16/09/2020 1:40 13.8 96 0.0 0 0.0 0.3 1.1 88
16/09/2020 1:50 14.0 96 0.0 0 0.0 0.1 0.4 26
16/09/2020 2:00 14.1 97 0.0 0 0.0 0.3 0.9 335
16/09/2020 2:10 13.9 97 0.0 0 0.0 0.7 2.4 336
16/09/2020 2:20 14.0 97 0.0 0 0.0 0.2 0.7 345
16/09/2020 2:30 13.7 96 0.0 0 0.0 0.2 0.9 159
16/09/2020 2:40 13.4 96 0.0 0 0.0 0.3 1.0 165
16/09/2020 2:50 13.2 97 0.0 0 0.0 0.1 0.5 162
16/09/2020 3:00 13.4 97 0.0 0 0.0 0.1 0.5 193
16/09/2020 3:10 13.4 97 0.0 0 0.0 0.1 0.3 203
16/09/2020 3:20 13.2 97 0.0 0 0.0 0.2 0.6 360
16/09/2020 3:30 13.5 98 0.0 0 0.0 0.4 1.4 329
16/09/2020 3:40 13.2 97 0.0 0 0.0 0.2 0.8 118
16/09/2020 3:50 12.8 97 0.0 0 0.0 0.3 1.0 159
16/09/2020 4:00 13.1 98 0.0 0 0.0 0.1 0.4 151
16/09/2020 4:10 12.8 97 0.0 0 0.0 0.1 0.3 12
16/09/2020 4:20 12.7 98 0.0 0 0.0 0.0 0.0 333
16/09/2020 4:30 12.8 98 0.0 0 0.0 0.0 0.0 0
16/09/2020 4:40 13.0 98 0.0 0 0.0 0.0 0.0 0
16/09/2020 4:50 12.9 98 0.0 0 0.0 0.0 0.0 208
16/09/2020 5:00 12.8 98 0.0 0 0.0 0.0 0.0 169
16/09/2020 5:10 12.8 98 0.0 0 0.0 0.1 0.2 116
16/09/2020 5:20 12.8 98 0.0 0 0.0 0.3 1.2 140
16/09/2020 5:30 12.6 98 0.0 0 0.0 0.0 0.1 115
16/09/2020 5:40 12.4 98 0.0 0 0.0 0.1 0.3 185
16/09/2020 5:50 12.3 98 0.0 0 0.0 0.1 0.4 31
16/09/2020 6:00 12.8 98 0.0 0 0.0 0.2 0.8 154
16/09/2020 6:10 12.2 98 10.5 0 0.0 0.2 0.7 205
16/09/2020 6:20 12.2 98 27.0 0 0.0 0.3 1.1 349
16/09/2020 6:30 12.7 99 40.0 0 0.0 0.3 1.0 14
16/09/2020 6:40 13.1 99 53.3 0 0.0 0.1 0.2 175
16/09/2020 6:50 13.0 98 66.3 0 0.0 0.0 0.0 0
16/09/2020 7:00 12.7 98 85.5 0 0.0 0.0 0.0 0
16/09/2020 7:10 13.2 99 105.8 0 0.0 0.1 0.4 36
16/09/2020 7:20 13.7 99 115.6 0 0.0 0.1 0.4 221
16/09/2020 7:30 14.0 99 134.8 0 0.0 0.5 1.7 198
16/09/2020 7:40 14.5 99 197.6 226 0.0 0.2 0.6 232
16/09/2020 7:50 15.1 98 325.7 600 0.0 0.3 1.0 210
16/09/2020 8:00 15.7 96 343.9 600 0.0 0.6 2.2 200
16/09/2020 8:10 16.8 89 338.6 600 0.0 0.8 2.7 190
16/09/2020 8:20 17.8 86 276.7 600 0.0 0.4 1.3 185
16/09/2020 8:30 18.4 83 346.8 600 0.0 0.7 2.6 185
16/09/2020 8:40 19.0 78 387.2 600 0.0 0.7 2.4 197
16/09/2020 8:50 19.8 76 458.2 600 0.0 0.6 2.3 205
16/09/2020 9:00 21.0 70 474.5 600 0.0 0.6 2.2 202
16/09/2020 9:10 21.9 63 514.5 600 0.0 0.7 2.7 185
16/09/2020 9:20 23.0 58 545.2 600 0.0 0.7 2.4 149
16/09/2020 9:30 23.8 54 572.2 600 0.0 0.8 2.8 176
16/09/2020 9:40 24.3 52 590.1 600 0.0 0.9 3.3 167
16/09/2020 9:50 25.1 50 610.7 600 0.0 0.9 3.1 180
16/09/2020 10:00 25.4 49 627.2 600 0.0 1.0 3.6 155
16/09/2020 10:10 26.1 47 641.0 600 0.0 0.9 3.2 167
16/09/2020 10:20 26.0 48 664.4 600 0.0 1.2 4.4 176
16/09/2020 10:30 26.2 47 681.5 600 0.0 0.9 3.3 118
16/09/2020 10:40 26.8 46 700.9 600 0.0 0.9 3.1 101
16/09/2020 10:50 27.6 44 715.2 600 0.0 1.5 5.2 171
16/09/2020 11:00 27.8 43 727.2 600 0.0 1.6 5.6 183
16/09/2020 11:10 28.4 41 738.4 600 0.0 1.5 5.3 161
16/09/2020 11:20 28.3 42 747.2 600 0.0 2.0 7.0 160
16/09/2020 11:30 28.5 40 751.8 600 0.0 1.8 6.4 166
16/09/2020 11:40 28.5 39 762.7 600 0.0 1.5 5.5 155
16/09/2020 11:50 28.5 39 766.1 600 0.0 1.7 6.3 224
16/09/2020 12:00 28.8 38 768.1 600 0.0 1.4 5.0 192
16/09/2020 12:10 28.9 37 771.0 600 0.0 1.0 3.7 191
16/09/2020 12:20 29.4 34 767.8 600 0.0 0.8 3.0 141
16/09/2020 12:30 29.9 34 768.4 600 0.0 1.4 4.9 175
16/09/2020 12:40 29.8 32 764.2 600 0.0 1.2 4.5 200
16/09/2020 12:50 29.8 30 766.4 600 0.0 1.2 4.5 215
16/09/2020 13:00 30.8 29 730.1 574 0.0 1.3 4.7 142
16/09/2020 13:10 30.3 29 742.6 600 0.0 1.7 6.3 216
16/09/2020 13:20 30.2 30 726.8 600 0.0 2.5 9.0 204
16/09/2020 13:30 30.3 31 705.1 600 0.0 1.6 5.6 202
16/09/2020 13:40 30.4 32 586.5 478 0.0 1.4 5.1 342
16/09/2020 13:50 29.3 38 513.8 402 0.0 1.9 6.8 18
16/09/2020 14:00 29.5 38 610.7 582 0.0 1.6 5.6 42
16/09/2020 14:10 29.2 38 416.4 304 0.0 2.3 8.4 33
16/09/2020 14:20 28.4 41 254.7 102 0.0 2.4 8.6 26
16/09/2020 14:30 27.8 43 287.1 168 0.0 2.1 7.5 41
16/09/2020 14:40 28.8 42 486.3 482 0.0 2.1 7.5 49
16/09/2020 14:50 28.3 42 179.1 48 0.0 2.0 7.2 22
16/09/2020 15:00 27.8 44 404.2 420 0.0 2.1 7.5 36
16/09/2020 15:10 28.6 42 460.9 594 0.0 1.9 6.7 1
16/09/2020 15:20 28.4 43 418.9 600 0.0 2.5 9.0 27
16/09/2020 15:30 28.2 44 278.2 258 0.0 3.1 11.2 29
16/09/2020 15:40 27.3 46 196.1 92 0.0 2.7 9.8 19
16/09/2020 15:50 27.6 46 377.9 600 0.0 1.6 5.6 14
16/09/2020 16:00 28.4 45 401.1 600 0.0 1.7 6.2 17
16/09/2020 16:10 27.8 46 205.7 152 0.0 2.4 8.7 19
16/09/2020 16:20 27.1 48 174.6 186 0.0 1.9 7.0 25
16/09/2020 16:30 27.1 48 227.1 600 0.0 2.1 7.7 17
16/09/2020 16:40 27.0 48 186.4 578 0.0 1.7 6.0 17
16/09/2020 16:50 27.0 48 208.8 600 0.0 1.8 6.4 12
16/09/2020 17:00 27.2 47 195.2 600 0.0 1.8 6.4 17
16/09/2020 17:10 27.1 49 149.5 600 0.0 0.8 2.9 5
16/09/2020 17:20 26.9 49 115.5 600 0.0 1.2 4.4 18
16/09/2020 17:30 26.3 51 71.7 188 0.0 1.7 6.1 2
16/09/2020 17:40 25.8 53 39.9 0 0.0 1.7 6.1 8
16/09/2020 17:50 25.1 56 20.7 0 0.0 1.3 4.8 351
16/09/2020 18:00 24.4 61 1.1 0 0.0 1.3 4.7 356
16/09/2020 18:10 23.8 64 0.0 0 0.0 1.5 5.4 347
16/09/2020 18:20 23.4 67 0.0 0 0.0 1.3 4.6 341
16/09/2020 18:30 22.9 71 0.0 0 0.0 1.9 6.8 343
16/09/2020 18:40 22.7 73 0.0 0 0.0 2.4 8.5 334
16/09/2020 18:50 22.4 74 0.0 0 0.0 2.0 7.2 337
16/09/2020 19:00 22.3 73 0.0 0 0.0 1.3 4.6 322
16/09/2020 19:10 21.9 74 0.0 0 0.0 1.1 3.8 336
16/09/2020 19:20 21.8 73 0.0 0 0.0 0.9 3.1 334
16/09/2020 19:30 21.7 73 0.0 0 0.0 1.0 3.6 330
16/09/2020 19:40 21.5 73 0.0 0 0.0 0.8 3.0 332
16/09/2020 19:50 21.3 73 0.0 0 0.0 0.9 3.2 344
16/09/2020 20:00 21.4 70 0.0 0 0.0 0.9 3.3 295
16/09/2020 20:10 21.0 73 0.0 0 0.0 0.8 3.0 316
16/09/2020 20:20 20.9 73 0.0 0 0.0 1.0 3.6 305
16/09/2020 20:30 20.5 74 0.0 0 0.0 1.1 3.9 336
16/09/2020 20:40 20.3 74 0.0 0 0.0 1.5 5.5 341
16/09/2020 20:50 20.6 71 0.0 0 0.0 1.2 4.1 336
16/09/2020 21:00 20.0 73 0.0 0 0.0 1.7 6.0 323
16/09/2020 21:10 19.5 73 0.0 0 0.0 2.0 7.2 327
16/09/2020 21:20 19.5 72 0.0 0 0.0 1.1 3.8 311
16/09/2020 21:30 18.9 77 0.0 0 0.0 1.2 4.1 327
16/09/2020 21:40 18.5 78 0.0 0 0.0 1.5 5.5 338
16/09/2020 21:50 18.3 78 0.0 0 0.0 1.3 4.8 327
16/09/2020 22:00 18.3 77 0.0 0 0.0 1.5 5.2 323
16/09/2020 22:10 18.1 78 0.0 0 0.0 0.9 3.4 314
16/09/2020 22:20 17.9 79 0.0 0 0.0 0.9 3.2 314
16/09/2020 22:30 17.6 80 0.0 0 0.0 1.0 3.4 333
16/09/2020 22:40 17.9 78 0.0 0 0.0 1.3 4.7 337
16/09/2020 22:50 18.5 75 0.0 0 0.0 1.1 3.9 320
16/09/2020 23:00 18.5 74 0.0 0 0.0 0.6 2.2 298
16/09/2020 23:10 17.6 78 0.0 0 0.0 1.0 3.4 293
16/09/2020 23:20 16.8 83 0.0 0 0.0 1.2 4.4 324
16/09/2020 23:30 17.0 82 0.0 0 0.0 0.7 2.5 329
16/09/2020 23:40 17.0 82 0.0 0 0.0 0.4 1.5 245
16/09/2020 23:50 16.5 84 0.0 0 0.0 0.5 1.7 261
Anterior Página 1 de 1 Siguiente

NOTA: Tipo de datos según el color:
   - Valores diarios o 10 minutos correctos
   - Valores diarios calculados a partir de un número de datos 10 minutos menor que 144 y mayor que 120, o de un número de datos semihorarios menor que 48 y mayor que 40 (caso de las estaciones de INTIA y del Ministerio)
   - Valores diez minutos estimados


Contacto        Enlaces        Aviso legal